createdAt,value
2022-10-29T00:02:08.617Z,13.90
2022-10-29T00:07:10.076Z,13.82
2022-10-29T00:12:11.649Z,13.76
2022-10-29T00:17:13.096Z,13.91
2022-10-29T00:22:15.440Z,13.75
2022-10-29T00:27:17.072Z,13.69
2022-10-29T00:32:18.670Z,13.79
2022-10-29T00:37:20.147Z,13.68
2022-10-29T00:42:21.588Z,13.72
2022-10-29T00:47:31.962Z,13.75
2022-10-29T00:52:37.336Z,13.63
2022-10-29T00:57:41.849Z,13.68
2022-10-29T01:02:44.242Z,13.65
2022-10-29T01:07:46.726Z,13.52
2022-10-29T01:13:06.355Z,13.57
2022-10-29T01:18:20.203Z,13.55
2022-10-29T01:23:21.644Z,13.54
2022-10-29T01:28:41.688Z,13.55
2022-10-29T01:33:46.106Z,13.50
2022-10-29T01:39:19.997Z,13.38
2022-10-29T01:44:36.817Z,13.37
2022-10-29T01:49:41.756Z,13.41
2022-10-29T01:54:45.913Z,13.41
2022-10-29T01:59:55.509Z,13.45
2022-10-29T02:05:37.971Z,13.30
2022-10-29T02:10:53.451Z,13.32
2022-10-29T02:15:56.954Z,13.27
2022-10-29T02:20:58.438Z,13.41
2022-10-29T02:25:59.922Z,13.40
2022-10-29T02:31:01.441Z,13.41
2022-10-29T02:36:02.979Z,13.22
2022-10-29T02:41:04.636Z,13.18
2022-10-29T02:46:19.470Z,13.12
2022-10-29T02:51:21.161Z,13.05
2022-10-29T02:56:22.633Z,13.01
2022-10-29T03:01:24.339Z,12.98
2022-10-29T03:06:25.940Z,13.08
2022-10-29T03:11:27.381Z,12.93
2022-10-29T03:16:28.860Z,12.89
2022-10-29T03:21:30.331Z,12.82
2022-10-29T03:26:31.958Z,12.70
2022-10-29T03:31:33.388Z,12.69
2022-10-29T03:36:34.855Z,12.63
2022-10-29T03:41:36.282Z,12.73
2022-10-29T03:46:37.779Z,12.71
2022-10-29T03:51:39.368Z,12.72
2022-10-29T03:56:40.816Z,12.71
2022-10-29T04:01:42.359Z,12.79
2022-10-29T04:06:43.995Z,12.76
2022-10-29T04:11:45.519Z,12.81
2022-10-29T04:16:47.166Z,12.90
2022-10-29T04:32:31.736Z,13.00
2022-10-29T04:37:33.133Z,12.93
2022-10-29T04:42:39.363Z,12.94
2022-10-29T04:47:40.951Z,12.99
2022-10-29T04:52:42.355Z,13.00
2022-10-29T04:57:49.426Z,13.00
2022-10-29T05:02:52.471Z,13.05
2022-10-29T05:08:00.962Z,13.03
2022-10-29T05:13:04.956Z,13.10
2022-10-29T05:18:07.144Z,13.11
2022-10-29T05:23:10.881Z,12.97
2022-10-29T05:28:14.561Z,12.93
2022-10-29T05:33:19.311Z,12.95
2022-10-29T05:38:20.753Z,12.97
2022-10-29T05:43:22.179Z,12.93
2022-10-29T05:48:23.672Z,13.02
2022-10-29T05:53:25.151Z,13.03
2022-10-29T05:58:26.559Z,13.07
2022-10-29T06:03:28.046Z,13.08
2022-10-29T06:08:29.570Z,13.16
2022-10-29T06:13:31.112Z,13.09
2022-10-29T06:18:32.502Z,13.12
2022-10-29T06:23:33.886Z,13.16
2022-10-29T06:28:35.274Z,13.18
2022-10-29T06:33:36.739Z,13.28
2022-10-29T06:38:38.234Z,13.40
2022-10-29T06:43:39.811Z,13.45
2022-10-29T06:48:41.256Z,13.18
2022-10-29T06:53:42.740Z,13.21
2022-10-29T06:58:44.121Z,13.15
2022-10-29T07:03:45.570Z,13.29
2022-10-29T07:08:46.986Z,13.33
2022-10-29T07:13:48.419Z,13.39
2022-10-29T07:18:49.875Z,13.53
2022-10-29T07:23:51.331Z,13.72
2022-10-29T07:28:55.378Z,13.93
2022-10-29T07:33:57.116Z,14.15
2022-10-29T07:38:58.843Z,14.05
2022-10-29T07:44:00.246Z,13.92
2022-10-29T07:49:01.837Z,13.97
2022-10-29T07:54:03.416Z,13.95
2022-10-29T07:59:04.860Z,13.91
2022-10-29T08:04:09.388Z,13.96
2022-10-29T08:09:11.968Z,13.92
2022-10-29T08:14:14.976Z,14.03
2022-10-29T08:19:18.152Z,14.10
2022-10-29T08:24:19.589Z,14.17
2022-10-29T08:29:21.101Z,14.32
2022-10-29T08:34:22.472Z,14.40
2022-10-29T08:39:24.062Z,14.59
2022-10-29T08:44:57.414Z,14.68
2022-10-29T08:50:04.856Z,14.73
2022-10-29T08:55:14.156Z,14.82
2022-10-29T09:00:20.156Z,14.95
2022-10-29T09:05:24.938Z,15.08
2022-10-29T09:10:38.454Z,15.12
2022-10-29T09:15:59.033Z,15.21
2022-10-29T09:21:15.837Z,15.28
2022-10-29T09:26:38.712Z,15.41
2022-10-29T09:31:48.860Z,15.40
2022-10-29T09:36:50.368Z,15.49
2022-10-29T09:41:53.792Z,15.35
2022-10-29T09:47:04.374Z,15.50
2022-10-29T09:52:22.679Z,15.47
2022-10-29T09:57:25.936Z,15.41
2022-10-29T10:02:38.092Z,15.44
2022-10-29T10:07:40.309Z,15.48
2022-10-29T10:12:47.452Z,15.50
2022-10-29T10:18:19.557Z,15.59
2022-10-29T10:23:25.089Z,15.63
2022-10-29T10:28:31.491Z,15.61
2022-10-29T10:33:35.048Z,15.64
2022-10-29T10:38:43.146Z,15.68
2022-10-29T10:43:46.238Z,15.65
2022-10-29T10:48:58.180Z,15.64
2022-10-29T10:54:03.120Z,15.65
2022-10-29T10:59:15.483Z,15.74
2022-10-29T11:04:34.765Z,15.73
2022-10-29T11:09:50.115Z,15.94
2022-10-29T11:14:55.693Z,15.93
2022-10-29T11:20:06.793Z,15.90
2022-10-29T11:25:16.909Z,15.87
2022-10-29T11:30:19.697Z,16.04
2022-10-29T11:35:29.889Z,16.12
2022-10-29T11:40:44.513Z,16.20
2022-10-29T11:46:00.892Z,16.19
2022-10-29T11:51:13.066Z,16.24
2022-10-29T11:56:41.962Z,16.30
2022-10-29T12:02:19.895Z,16.09
2022-10-29T12:07:59.003Z,16.57
2022-10-29T12:13:19.350Z,16.48
2022-10-29T12:18:29.871Z,16.55
2022-10-29T14:41:05.831Z,16.27
2022-10-29T14:46:42.138Z,16.31
2022-10-29T14:51:53.291Z,16.25
2022-10-29T14:56:59.028Z,16.19
2022-10-29T15:02:32.096Z,16.09
2022-10-29T15:07:32.723Z,16.10
2022-10-29T15:12:37.242Z,16.15
2022-10-29T15:17:50.182Z,16.38
2022-10-29T15:22:56.559Z,16.28
2022-10-29T15:27:59.263Z,16.32
2022-10-29T15:33:03.805Z,16.29
2022-10-29T15:38:05.409Z,16.26
2022-10-29T15:43:29.819Z,16.33
2022-10-29T15:48:37.275Z,16.19
2022-10-29T15:53:38.869Z,16.40
2022-10-29T15:58:41.373Z,16.23
2022-10-29T16:03:43.567Z,16.07
2022-10-29T16:08:51.163Z,16.04
2022-10-29T16:13:54.992Z,15.96
2022-10-29T16:18:56.915Z,15.93
2022-10-29T16:23:58.487Z,15.92
2022-10-29T16:28:59.944Z,15.92
2022-10-29T16:34:04.463Z,15.89
2022-10-29T16:39:05.908Z,15.92
2022-10-29T16:44:07.328Z,15.93
2022-10-29T16:49:08.726Z,15.94
2022-10-29T16:54:10.124Z,15.95
2022-10-29T16:59:11.626Z,15.91
2022-10-29T17:04:13.181Z,15.93
2022-10-29T17:09:14.929Z,15.88
2022-10-29T17:14:16.392Z,15.79
2022-10-29T17:19:17.884Z,15.75
2022-10-29T17:24:19.288Z,15.67
2022-10-29T17:29:20.740Z,15.62
2022-10-29T17:34:22.167Z,15.52
2022-10-29T17:39:23.809Z,15.46
2022-10-29T17:44:25.627Z,15.45
2022-10-29T17:49:27.138Z,15.40
2022-10-29T17:54:28.624Z,15.39
2022-10-29T17:59:30.084Z,15.29
2022-10-29T18:04:31.508Z,15.26
2022-10-29T18:09:32.909Z,15.18
2022-10-29T18:14:34.323Z,15.09
2022-10-29T18:19:35.738Z,15.06
2022-10-29T18:24:37.206Z,15.06
2022-10-29T18:29:38.738Z,15.00
2022-10-29T18:34:40.303Z,14.91
2022-10-29T18:39:41.805Z,14.86
2022-10-29T18:44:43.386Z,14.81
2022-10-29T18:49:44.961Z,14.69
2022-10-29T18:54:46.530Z,14.56
2022-10-29T18:59:48.031Z,14.59
2022-10-29T19:04:49.494Z,14.61
2022-10-29T19:09:51.027Z,14.56
2022-10-29T19:14:53.264Z,14.50
2022-10-29T19:19:54.811Z,14.45
2022-10-29T19:24:56.433Z,14.37
2022-10-29T19:29:57.992Z,14.32
2022-10-29T19:34:59.529Z,14.30
2022-10-29T19:40:00.989Z,14.19
2022-10-29T19:45:02.566Z,14.22
2022-10-29T19:50:04.257Z,14.15
2022-10-29T19:55:06.337Z,14.16
2022-10-29T20:00:12.146Z,14.17
2022-10-29T20:05:16.353Z,14.09
2022-10-29T20:10:18.195Z,14.01
2022-10-29T20:15:19.661Z,13.99
2022-10-29T20:20:21.125Z,13.88
2022-10-29T20:25:23.984Z,13.94
2022-10-29T20:30:25.735Z,13.91
2022-10-29T20:35:27.188Z,13.92
2022-10-29T20:40:28.639Z,13.85
2022-10-29T20:45:30.193Z,13.94
2022-10-29T20:50:31.665Z,13.85
2022-10-29T20:55:34.242Z,13.82
2022-10-29T21:00:38.129Z,13.77
2022-10-29T21:05:39.858Z,13.82
2022-10-29T21:10:41.339Z,13.91
2022-10-29T21:15:42.842Z,13.95
2022-10-29T21:20:44.264Z,14.00
2022-10-29T21:25:52.589Z,13.97
2022-10-29T21:30:54.095Z,13.89
2022-10-29T21:35:56.683Z,13.90
2022-10-29T21:40:58.162Z,13.87
2022-10-29T21:45:59.658Z,13.79
2022-10-29T21:51:12.605Z,13.76
2022-10-29T21:56:15.020Z,13.83
2022-10-29T22:01:17.131Z,13.82
2022-10-29T22:06:21.227Z,13.87
2022-10-29T22:11:23.680Z,13.81
2022-10-29T22:16:25.120Z,13.82
2022-10-29T22:21:26.665Z,13.75
2022-10-29T22:26:29.558Z,13.79
2022-10-29T22:31:31.212Z,13.80
2022-10-29T22:36:32.745Z,13.83
2022-10-29T22:41:34.240Z,13.88
2022-10-29T22:46:35.803Z,13.88
2022-10-29T22:51:37.250Z,13.95
2022-10-29T22:56:38.679Z,13.95
2022-10-29T23:01:44.022Z,13.80
2022-10-29T23:06:47.073Z,13.78
2022-10-29T23:11:48.490Z,13.67
2022-10-29T23:16:49.894Z,13.62
2022-10-29T23:21:52.748Z,13.57
2022-10-29T23:26:54.381Z,13.53
2022-10-29T23:31:56.045Z,13.52
2022-10-29T23:36:57.562Z,13.52
2022-10-29T23:41:59.037Z,13.46
2022-10-29T23:47:00.661Z,13.40
2022-10-29T23:52:02.085Z,13.38
2022-10-29T23:57:03.886Z,13.32
